sensor_id;sensor_type;location;lat;lon;timestamp;temperature;humidity
21778;DHT22;11050;52.222;20.916;2022-08-05T00:02:11;19.40;99.90
21778;DHT22;11050;52.222;20.916;2022-08-05T00:04:38;19.40;99.90
21778;DHT22;11050;52.222;20.916;2022-08-05T00:07:04;19.30;99.90
21778;DHT22;11050;52.222;20.916;2022-08-05T00:09:30;19.30;99.90
21778;DHT22;11050;52.222;20.916;2022-08-05T00:11:56;19.30;99.90
21778;DHT22;11050;52.222;20.916;2022-08-05T00:14:22;19.30;99.90
21778;DHT22;11050;52.222;20.916;2022-08-05T00:16:48;19.20;99.90
21778;DHT22;11050;52.222;20.916;2022-08-05T00:19:14;19.20;99.90
21778;DHT22;11050;52.222;20.916;2022-08-05T00:21:40;19.20;99.90
21778;DHT22;11050;52.222;20.916;2022-08-05T00:24:06;19.20;99.90
21778;DHT22;11050;52.222;20.916;2022-08-05T00:26:31;19.20;99.90
21778;DHT22;11050;52.222;20.916;2022-08-05T00:28:57;19.10;99.90
21778;DHT22;11050;52.222;20.916;2022-08-05T00:31:23;19.10;99.90
21778;DHT22;11050;52.222;20.916;2022-08-05T00:33:49;19.10;99.90
21778;DHT22;11050;52.222;20.916;2022-08-05T00:36:14;19.00;99.90
21778;DHT22;11050;52.222;20.916;2022-08-05T00:38:40;19.10;99.90
21778;DHT22;11050;52.222;20.916;2022-08-05T00:41:06;19.00;99.90
21778;DHT22;11050;52.222;20.916;2022-08-05T00:43:35;19.00;99.90
21778;DHT22;11050;52.222;20.916;2022-08-05T00:46:01;19.00;99.90
21778;DHT22;11050;52.222;20.916;2022-08-05T00:48:27;19.00;99.90
21778;DHT22;11050;52.222;20.916;2022-08-05T00:50:53;18.90;99.90
21778;DHT22;11050;52.222;20.916;2022-08-05T00:53:20;18.90;99.90
21778;DHT22;11050;52.222;20.916;2022-08-05T00:55:47;18.90;99.90
21778;DHT22;11050;52.222;20.916;2022-08-05T00:58:14;18.90;99.90
21778;DHT22;11050;52.222;20.916;2022-08-05T01:00:44;18.80;99.90
21778;DHT22;11050;52.222;20.916;2022-08-05T01:03:12;18.80;99.90
21778;DHT22;11050;52.222;20.916;2022-08-05T01:05:38;18.80;99.90
21778;DHT22;11050;52.222;20.916;2022-08-05T01:08:04;18.80;99.90
21778;DHT22;11050;52.222;20.916;2022-08-05T01:10:39;18.80;99.90
21778;DHT22;11050;52.222;20.916;2022-08-05T01:13:14;18.70;99.90
21778;DHT22;11050;52.222;20.916;2022-08-05T01:15:52;18.70;99.90
21778;DHT22;11050;52.222;20.916;2022-08-05T01:18:24;18.70;99.90
21778;DHT22;11050;52.222;20.916;2022-08-05T01:30:19;18.60;99.90
21778;DHT22;11050;52.222;20.916;2022-08-05T01:32:49;18.50;99.90
21778;DHT22;11050;52.222;20.916;2022-08-05T01:35:18;18.60;99.90
21778;DHT22;11050;52.222;20.916;2022-08-05T01:37:54;18.50;99.90
21778;DHT22;11050;52.222;20.916;2022-08-05T01:40:24;18.50;99.90
21778;DHT22;11050;52.222;20.916;2022-08-05T01:42:54;18.50;99.90
21778;DHT22;11050;52.222;20.916;2022-08-05T01:45:23;18.50;99.90
21778;DHT22;11050;52.222;20.916;2022-08-05T01:47:52;18.40;99.90
21778;DHT22;11050;52.222;20.916;2022-08-05T01:50:31;18.40;99.90
21778;DHT22;11050;52.222;20.916;2022-08-05T01:53:06;18.40;99.90
21778;DHT22;11050;52.222;20.916;2022-08-05T01:55:36;18.40;99.90
21778;DHT22;11050;52.222;20.916;2022-08-05T01:58:06;18.40;99.90
21778;DHT22;11050;52.222;20.916;2022-08-05T02:00:36;18.40;99.90
21778;DHT22;11050;52.222;20.916;2022-08-05T02:03:20;18.30;99.90
21778;DHT22;11050;52.222;20.916;2022-08-05T02:05:51;18.30;99.90
21778;DHT22;11050;52.222;20.916;2022-08-05T02:08:19;18.30;99.90
21778;DHT22;11050;52.222;20.916;2022-08-05T02:10:52;18.30;99.90
21778;DHT22;11050;52.222;20.916;2022-08-05T02:13:27;18.20;99.90
21778;DHT22;11050;52.222;20.916;2022-08-05T02:16:18;18.20;99.90
21778;DHT22;11050;52.222;20.916;2022-08-05T02:18:51;18.20;99.90
21778;DHT22;11050;52.222;20.916;2022-08-05T02:21:30;18.20;99.90
21778;DHT22;11050;52.222;20.916;2022-08-05T02:24:05;18.20;99.90
21778;DHT22;11050;52.222;20.916;2022-08-05T02:26:40;18.20;99.90
21778;DHT22;11050;52.222;20.916;2022-08-05T02:29:11;18.20;99.90
21778;DHT22;11050;52.222;20.916;2022-08-05T02:31:40;18.10;99.90
21778;DHT22;11050;52.222;20.916;2022-08-05T02:34:10;18.10;99.90
21778;DHT22;11050;52.222;20.916;2022-08-05T02:36:43;18.10;99.90
21778;DHT22;11050;52.222;20.916;2022-08-05T02:39:17;18.10;99.90
21778;DHT22;11050;52.222;20.916;2022-08-05T02:41:48;18.10;99.90
21778;DHT22;11050;52.222;20.916;2022-08-05T02:44:17;18.10;99.90
21778;DHT22;11050;52.222;20.916;2022-08-05T02:46:45;18.10;99.90
21778;DHT22;11050;52.222;20.916;2022-08-05T02:49:14;18.10;99.90
21778;DHT22;11050;52.222;20.916;2022-08-05T02:51:41;18.10;99.90
21778;DHT22;11050;52.222;20.916;2022-08-05T02:54:09;18.00;99.90
21778;DHT22;11050;52.222;20.916;2022-08-05T02:56:38;18.00;99.90
21778;DHT22;11050;52.222;20.916;2022-08-05T02:59:09;18.00;99.90
21778;DHT22;11050;52.222;20.916;2022-08-05T03:01:36;18.00;99.90
21778;DHT22;11050;52.222;20.916;2022-08-05T03:04:12;18.00;99.90
21778;DHT22;11050;52.222;20.916;2022-08-05T03:06:40;18.00;99.90
21778;DHT22;11050;52.222;20.916;2022-08-05T03:09:10;18.00;99.90
21778;DHT22;11050;52.222;20.916;2022-08-05T03:11:40;18.00;99.90
21778;DHT22;11050;52.222;20.916;2022-08-05T03:14:08;18.00;99.90
21778;DHT22;11050;52.222;20.916;2022-08-05T03:16:35;18.00;99.90
21778;DHT22;11050;52.222;20.916;2022-08-05T03:19:01;18.00;99.90
21778;DHT22;11050;52.222;20.916;2022-08-05T03:21:28;18.00;99.90
21778;DHT22;11050;52.222;20.916;2022-08-05T03:23:54;18.10;99.90
21778;DHT22;11050;52.222;20.916;2022-08-05T03:26:22;18.10;99.90
21778;DHT22;11050;52.222;20.916;2022-08-05T03:28:48;18.10;99.90
21778;DHT22;11050;52.222;20.916;2022-08-05T03:31:14;18.10;99.90
21778;DHT22;11050;52.222;20.916;2022-08-05T03:33:40;18.10;99.90
21778;DHT22;11050;52.222;20.916;2022-08-05T03:36:07;18.10;99.90
21778;DHT22;11050;52.222;20.916;2022-08-05T03:38:39;18.10;99.90
21778;DHT22;11050;52.222;20.916;2022-08-05T03:41:08;18.10;99.90
21778;DHT22;11050;52.222;20.916;2022-08-05T03:43:35;18.20;99.90
21778;DHT22;11050;52.222;20.916;2022-08-05T03:46:02;18.20;99.90
21778;DHT22;11050;52.222;20.916;2022-08-05T03:48:29;18.20;99.90
21778;DHT22;11050;52.222;20.916;2022-08-05T03:51:15;18.30;99.90
21778;DHT22;11050;52.222;20.916;2022-08-05T03:54:05;18.30;99.90
21778;DHT22;11050;52.222;20.916;2022-08-05T03:56:45;18.30;99.90
21778;DHT22;11050;52.222;20.916;2022-08-05T03:59:22;18.40;99.90
21778;DHT22;11050;52.222;20.916;2022-08-05T04:01:52;18.40;99.90
21778;DHT22;11050;52.222;20.916;2022-08-05T04:04:23;18.40;99.90
21778;DHT22;11050;52.222;20.916;2022-08-05T04:06:50;18.50;99.90
21778;DHT22;11050;52.222;20.916;2022-08-05T04:09:17;18.50;99.90
21778;DHT22;11050;52.222;20.916;2022-08-05T04:11:44;18.60;99.90
21778;DHT22;11050;52.222;20.916;2022-08-05T04:14:10;18.60;99.90
21778;DHT22;11050;52.222;20.916;2022-08-05T04:16:36;18.70;99.90
21778;DHT22;11050;52.222;20.916;2022-08-05T04:19:03;18.70;99.90
21778;DHT22;11050;52.222;20.916;2022-08-05T04:21:29;18.80;99.90
21778;DHT22;11050;52.222;20.916;2022-08-05T04:23:56;18.80;99.90
21778;DHT22;11050;52.222;20.916;2022-08-05T04:26:25;18.80;99.90
21778;DHT22;11050;52.222;20.916;2022-08-05T04:28:50;18.90;99.90
21778;DHT22;11050;52.222;20.916;2022-08-05T04:31:16;18.90;99.90
21778;DHT22;11050;52.222;20.916;2022-08-05T04:33:42;19.00;99.90
21778;DHT22;11050;52.222;20.916;2022-08-05T04:36:08;19.10;99.90
21778;DHT22;11050;52.222;20.916;2022-08-05T04:38:35;19.20;99.90
21778;DHT22;11050;52.222;20.916;2022-08-05T04:41:01;19.20;99.90
21778;DHT22;11050;52.222;20.916;2022-08-05T04:43:27;19.40;99.90
21778;DHT22;11050;52.222;20.916;2022-08-05T04:45:53;19.40;99.90
21778;DHT22;11050;52.222;20.916;2022-08-05T04:48:19;19.50;99.90
21778;DHT22;11050;52.222;20.916;2022-08-05T04:50:46;19.60;99.90
21778;DHT22;11050;52.222;20.916;2022-08-05T04:53:15;19.70;99.90
21778;DHT22;11050;52.222;20.916;2022-08-05T04:55:43;19.80;99.90
21778;DHT22;11050;52.222;20.916;2022-08-05T04:58:12;19.80;99.90
21778;DHT22;11050;52.222;20.916;2022-08-05T05:00:41;19.90;99.90
21778;DHT22;11050;52.222;20.916;2022-08-05T05:03:09;20.00;99.90
21778;DHT22;11050;52.222;20.916;2022-08-05T05:05:36;20.10;99.90
21778;DHT22;11050;52.222;20.916;2022-08-05T05:08:11;20.20;99.90
21778;DHT22;11050;52.222;20.916;2022-08-05T05:10:43;20.30;99.90
21778;DHT22;11050;52.222;20.916;2022-08-05T05:13:13;20.40;99.90
21778;DHT22;11050;52.222;20.916;2022-08-05T05:15:41;20.50;99.90
21778;DHT22;11050;52.222;20.916;2022-08-05T05:18:08;20.60;99.90
21778;DHT22;11050;52.222;20.916;2022-08-05T05:20:37;20.70;99.90
21778;DHT22;11050;52.222;20.916;2022-08-05T05:23:03;20.80;99.90
21778;DHT22;11050;52.222;20.916;2022-08-05T05:25:30;21.00;99.90
21778;DHT22;11050;52.222;20.916;2022-08-05T05:27:55;21.10;99.90
21778;DHT22;11050;52.222;20.916;2022-08-05T05:30:22;21.20;99.90
21778;DHT22;11050;52.222;20.916;2022-08-05T05:32:48;21.30;99.90
21778;DHT22;11050;52.222;20.916;2022-08-05T05:35:14;21.30;99.90
21778;DHT22;11050;52.222;20.916;2022-08-05T05:37:52;21.50;99.90
21778;DHT22;11050;52.222;20.916;2022-08-05T05:40:23;21.60;99.90
21778;DHT22;11050;52.222;20.916;2022-08-05T05:42:49;21.70;99.90
21778;DHT22;11050;52.222;20.916;2022-08-05T05:45:16;21.80;99.90
21778;DHT22;11050;52.222;20.916;2022-08-05T05:47:44;21.90;99.90
21778;DHT22;11050;52.222;20.916;2022-08-05T05:50:12;22.00;99.90
21778;DHT22;11050;52.222;20.916;2022-08-05T05:52:40;22.00;99.90
21778;DHT22;11050;52.222;20.916;2022-08-05T05:55:09;22.10;99.90
21778;DHT22;11050;52.222;20.916;2022-08-05T05:57:37;22.20;99.90
21778;DHT22;11050;52.222;20.916;2022-08-05T06:00:05;22.30;99.90
21778;DHT22;11050;52.222;20.916;2022-08-05T06:02:33;22.40;99.90
21778;DHT22;11050;52.222;20.916;2022-08-05T06:04:59;22.50;99.90
21778;DHT22;11050;52.222;20.916;2022-08-05T06:07:26;22.60;99.90
21778;DHT22;11050;52.222;20.916;2022-08-05T06:09:52;22.70;99.90
21778;DHT22;11050;52.222;20.916;2022-08-05T06:12:18;22.80;99.90
21778;DHT22;11050;52.222;20.916;2022-08-05T06:14:44;22.80;99.90
21778;DHT22;11050;52.222;20.916;2022-08-05T06:17:11;22.90;99.90
21778;DHT22;11050;52.222;20.916;2022-08-05T06:19:37;23.00;99.90
21778;DHT22;11050;52.222;20.916;2022-08-05T06:22:03;23.00;99.90
21778;DHT22;11050;52.222;20.916;2022-08-05T06:24:31;23.10;99.90
21778;DHT22;11050;52.222;20.916;2022-08-05T06:26:58;23.10;99.90
21778;DHT22;11050;52.222;20.916;2022-08-05T06:29:24;23.20;99.90
21778;DHT22;11050;52.222;20.916;2022-08-05T06:31:50;23.30;99.90
21778;DHT22;11050;52.222;20.916;2022-08-05T06:34:16;23.40;99.90
21778;DHT22;11050;52.222;20.916;2022-08-05T06:36:42;23.50;99.90
21778;DHT22;11050;52.222;20.916;2022-08-05T06:39:08;23.50;99.90
21778;DHT22;11050;52.222;20.916;2022-08-05T06:41:34;23.70;99.90
21778;DHT22;11050;52.222;20.916;2022-08-05T06:44:00;23.70;99.90
21778;DHT22;11050;52.222;20.916;2022-08-05T06:46:26;23.70;99.90
21778;DHT22;11050;52.222;20.916;2022-08-05T06:48:52;23.80;99.90
21778;DHT22;11050;52.222;20.916;2022-08-05T06:51:17;24.00;99.90
21778;DHT22;11050;52.222;20.916;2022-08-05T06:53:43;24.00;99.90
21778;DHT22;11050;52.222;20.916;2022-08-05T06:56:09;24.10;99.90
21778;DHT22;11050;52.222;20.916;2022-08-05T06:58:35;24.20;99.90
21778;DHT22;11050;52.222;20.916;2022-08-05T07:01:02;24.30;99.90
21778;DHT22;11050;52.222;20.916;2022-08-05T07:03:30;24.40;99.90
21778;DHT22;11050;52.222;20.916;2022-08-05T07:05:57;24.50;99.90
21778;DHT22;11050;52.222;20.916;2022-08-05T07:08:23;24.60;99.90
21778;DHT22;11050;52.222;20.916;2022-08-05T07:10:53;24.70;99.90
21778;DHT22;11050;52.222;20.916;2022-08-05T07:13:20;24.80;99.90
21778;DHT22;11050;52.222;20.916;2022-08-05T07:16:06;24.90;99.90
21778;DHT22;11050;52.222;20.916;2022-08-05T07:18:50;25.00;99.90
21778;DHT22;11050;52.222;20.916;2022-08-05T07:21:16;25.00;99.90
21778;DHT22;11050;52.222;20.916;2022-08-05T07:23:42;25.20;99.90
21778;DHT22;11050;52.222;20.916;2022-08-05T07:26:07;25.20;99.90
21778;DHT22;11050;52.222;20.916;2022-08-05T07:28:33;25.30;99.90
21778;DHT22;11050;52.222;20.916;2022-08-05T07:30:59;25.40;99.90
21778;DHT22;11050;52.222;20.916;2022-08-05T07:33:25;25.50;99.90
21778;DHT22;11050;52.222;20.916;2022-08-05T07:35:51;25.60;99.90
21778;DHT22;11050;52.222;20.916;2022-08-05T07:38:17;25.70;99.90
21778;DHT22;11050;52.222;20.916;2022-08-05T07:40:43;25.80;99.90
21778;DHT22;11050;52.222;20.916;2022-08-05T07:43:10;25.90;99.90
21778;DHT22;11050;52.222;20.916;2022-08-05T07:45:38;26.00;99.90
21778;DHT22;11050;52.222;20.916;2022-08-05T07:48:06;26.10;99.50
21778;DHT22;11050;52.222;20.916;2022-08-05T07:50:32;26.20;98.60
21778;DHT22;11050;52.222;20.916;2022-08-05T07:52:58;26.20;97.30
21778;DHT22;11050;52.222;20.916;2022-08-05T07:55:24;26.30;97.50
21778;DHT22;11050;52.222;20.916;2022-08-05T07:57:50;26.30;96.90
21778;DHT22;11050;52.222;20.916;2022-08-05T08:00:16;26.40;96.60
21778;DHT22;11050;52.222;20.916;2022-08-05T08:02:42;26.50;95.00
21778;DHT22;11050;52.222;20.916;2022-08-05T08:05:08;26.60;94.70
21778;DHT22;11050;52.222;20.916;2022-08-05T08:07:35;26.70;94.70
21778;DHT22;11050;52.222;20.916;2022-08-05T08:10:02;26.70;95.10
21778;DHT22;11050;52.222;20.916;2022-08-05T08:12:29;26.80;94.20
21778;DHT22;11050;52.222;20.916;2022-08-05T08:14:55;26.90;94.70
21778;DHT22;11050;52.222;20.916;2022-08-05T08:17:21;27.00;93.80
21778;DHT22;11050;52.222;20.916;2022-08-05T08:19:47;27.20;93.60
21778;DHT22;11050;52.222;20.916;2022-08-05T08:22:13;27.20;92.40
21778;DHT22;11050;52.222;20.916;2022-08-05T08:24:39;27.30;92.00
21778;DHT22;11050;52.222;20.916;2022-08-05T08:27:05;27.40;91.70
21778;DHT22;11050;52.222;20.916;2022-08-05T08:29:31;27.40;90.80
21778;DHT22;11050;52.222;20.916;2022-08-05T08:31:57;27.40;90.50
21778;DHT22;11050;52.222;20.916;2022-08-05T08:34:24;27.40;90.40
21778;DHT22;11050;52.222;20.916;2022-08-05T08:36:51;27.50;90.80
21778;DHT22;11050;52.222;20.916;2022-08-05T08:39:18;27.60;90.60
21778;DHT22;11050;52.222;20.916;2022-08-05T08:41:47;27.70;90.30
21778;DHT22;11050;52.222;20.916;2022-08-05T08:44:19;27.70;90.80
21778;DHT22;11050;52.222;20.916;2022-08-05T08:46:47;27.80;90.10
21778;DHT22;11050;52.222;20.916;2022-08-05T08:49:14;27.90;88.00
21778;DHT22;11050;52.222;20.916;2022-08-05T08:51:42;28.00;88.60
21778;DHT22;11050;52.222;20.916;2022-08-05T08:54:14;28.20;86.50
21778;DHT22;11050;52.222;20.916;2022-08-05T08:56:40;28.20;85.90
21778;DHT22;11050;52.222;20.916;2022-08-05T08:59:07;28.20;85.30
21778;DHT22;11050;52.222;20.916;2022-08-05T09:01:33;28.30;86.20
21778;DHT22;11050;52.222;20.916;2022-08-05T09:03:59;28.40;86.00
21778;DHT22;11050;52.222;20.916;2022-08-05T09:06:27;28.50;84.10
21778;DHT22;11050;52.222;20.916;2022-08-05T09:08:54;28.60;84.30
21778;DHT22;11050;52.222;20.916;2022-08-05T09:11:21;28.60;80.20
21778;DHT22;11050;52.222;20.916;2022-08-05T09:13:48;28.70;80.40
21778;DHT22;11050;52.222;20.916;2022-08-05T09:16:14;28.70;78.40
21778;DHT22;11050;52.222;20.916;2022-08-05T09:18:40;28.80;80.70
21778;DHT22;11050;52.222;20.916;2022-08-05T09:21:08;28.90;82.00
21778;DHT22;11050;52.222;20.916;2022-08-05T09:23:34;28.90;79.70
21778;DHT22;11050;52.222;20.916;2022-08-05T09:26:07;28.90;78.30
21778;DHT22;11050;52.222;20.916;2022-08-05T09:28:36;29.00;79.20
21778;DHT22;11050;52.222;20.916;2022-08-05T09:31:08;29.10;76.90
21778;DHT22;11050;52.222;20.916;2022-08-05T09:33:54;29.10;74.90
21778;DHT22;11050;52.222;20.916;2022-08-05T09:36:46;29.20;73.30
21778;DHT22;11050;52.222;20.916;2022-08-05T09:39:15;29.20;72.20
21778;DHT22;11050;52.222;20.916;2022-08-05T09:44:38;29.40;76.50
21778;DHT22;11050;52.222;20.916;2022-08-05T09:47:14;29.40;75.70
21778;DHT22;11050;52.222;20.916;2022-08-05T09:49:42;29.50;71.20
21778;DHT22;11050;52.222;20.916;2022-08-05T09:52:26;29.50;71.00
21778;DHT22;11050;52.222;20.916;2022-08-05T09:55:03;29.60;73.20
21778;DHT22;11050;52.222;20.916;2022-08-05T09:57:40;29.60;70.50
21778;DHT22;11050;52.222;20.916;2022-08-05T10:00:14;29.60;69.10
21778;DHT22;11050;52.222;20.916;2022-08-05T10:02:45;29.60;71.20
21778;DHT22;11050;52.222;20.916;2022-08-05T10:05:18;29.60;72.00
21778;DHT22;11050;52.222;20.916;2022-08-05T10:07:54;29.70;68.40
21778;DHT22;11050;52.222;20.916;2022-08-05T10:10:35;29.70;67.60
21778;DHT22;11050;52.222;20.916;2022-08-05T10:13:05;29.70;69.90
21778;DHT22;11050;52.222;20.916;2022-08-05T10:15:36;29.80;68.40
21778;DHT22;11050;52.222;20.916;2022-08-05T10:20:45;30.00;69.20
21778;DHT22;11050;52.222;20.916;2022-08-05T10:23:25;30.10;69.00
21778;DHT22;11050;52.222;20.916;2022-08-05T10:25:55;30.30;68.60
21778;DHT22;11050;52.222;20.916;2022-08-05T10:28:23;30.40;69.40
21778;DHT22;11050;52.222;20.916;2022-08-05T10:30:50;30.60;65.80
21778;DHT22;11050;52.222;20.916;2022-08-05T10:33:18;30.70;65.80
21778;DHT22;11050;52.222;20.916;2022-08-05T10:35:48;30.80;66.30
21778;DHT22;11050;52.222;20.916;2022-08-05T10:38:14;30.90;64.80
21778;DHT22;11050;52.222;20.916;2022-08-05T10:41:02;31.00;63.10
21778;DHT22;11050;52.222;20.916;2022-08-05T10:43:56;31.10;62.60
21778;DHT22;11050;52.222;20.916;2022-08-05T10:46:45;31.20;61.30
21778;DHT22;11050;52.222;20.916;2022-08-05T10:49:14;31.20;61.30
21778;DHT22;11050;52.222;20.916;2022-08-05T10:51:48;31.30;63.80
21778;DHT22;11050;52.222;20.916;2022-08-05T10:54:17;31.40;59.40
21778;DHT22;11050;52.222;20.916;2022-08-05T10:56:53;31.50;59.00
21778;DHT22;11050;52.222;20.916;2022-08-05T10:59:30;31.60;58.40
21778;DHT22;11050;52.222;20.916;2022-08-05T11:02:10;31.70;58.30
21778;DHT22;11050;52.222;20.916;2022-08-05T11:04:45;31.60;57.80
21778;DHT22;11050;52.222;20.916;2022-08-05T11:07:14;31.70;58.70
21778;DHT22;11050;52.222;20.916;2022-08-05T11:09:46;31.80;59.10
21778;DHT22;11050;52.222;20.916;2022-08-05T11:17:34;32.50;57.20
21778;DHT22;11050;52.222;20.916;2022-08-05T11:20:04;32.70;55.60
21778;DHT22;11050;52.222;20.916;2022-08-05T11:33:35;33.90;52.50
21778;DHT22;11050;52.222;20.916;2022-08-05T11:36:04;34.00;52.10
21778;DHT22;11050;52.222;20.916;2022-08-05T11:41:28;34.40;51.90
21778;DHT22;11050;52.222;20.916;2022-08-05T11:43:57;34.60;51.00
21778;DHT22;11050;52.222;20.916;2022-08-05T11:47:07;34.70;50.20
21778;DHT22;11050;52.222;20.916;2022-08-05T11:49:25;34.90;49.40
21778;DHT22;11050;52.222;20.916;2022-08-05T11:51:52;35.10;48.90
21778;DHT22;11050;52.222;20.916;2022-08-05T11:56:52;35.30;46.50
21778;DHT22;11050;52.222;20.916;2022-08-05T11:59:22;35.40;46.70
21778;DHT22;11050;52.222;20.916;2022-08-05T12:04:28;35.50;45.80
21778;DHT22;11050;52.222;20.916;2022-08-05T12:07:09;35.60;46.80
21778;DHT22;11050;52.222;20.916;2022-08-05T12:09:47;35.70;46.10
21778;DHT22;11050;52.222;20.916;2022-08-05T12:12:24;35.80;46.30
21778;DHT22;11050;52.222;20.916;2022-08-05T12:14:53;35.90;45.70
21778;DHT22;11050;52.222;20.916;2022-08-05T12:17:19;36.20;45.40
21778;DHT22;11050;52.222;20.916;2022-08-05T12:19:52;36.40;43.70
21778;DHT22;11050;52.222;20.916;2022-08-05T12:22:25;36.50;44.20
21778;DHT22;11050;52.222;20.916;2022-08-05T12:24:53;36.50;41.80
21778;DHT22;11050;52.222;20.916;2022-08-05T12:27:24;36.50;42.20
21778;DHT22;11050;52.222;20.916;2022-08-05T12:32:46;36.60;42.40
21778;DHT22;11050;52.222;20.916;2022-08-05T12:35:18;36.70;42.00
21778;DHT22;11050;52.222;20.916;2022-08-05T12:37:46;36.80;42.50
21778;DHT22;11050;52.222;20.916;2022-08-05T12:40:12;37.00;42.80
21778;DHT22;11050;52.222;20.916;2022-08-05T12:42:40;37.20;41.70
21778;DHT22;11050;52.222;20.916;2022-08-05T12:45:09;37.50;40.60
21778;DHT22;11050;52.222;20.916;2022-08-05T12:47:36;37.70;39.60
21778;DHT22;11050;52.222;20.916;2022-08-05T12:50:13;37.70;40.00
21778;DHT22;11050;52.222;20.916;2022-08-05T12:52:40;37.90;39.70
21778;DHT22;11050;52.222;20.916;2022-08-05T12:55:21;38.10;38.70
21778;DHT22;11050;52.222;20.916;2022-08-05T12:57:49;38.10;38.60
21778;DHT22;11050;52.222;20.916;2022-08-05T13:00:21;37.90;38.20
21778;DHT22;11050;52.222;20.916;2022-08-05T13:02:48;37.90;38.90
21778;DHT22;11050;52.222;20.916;2022-08-05T13:05:15;37.80;38.50
21778;DHT22;11050;52.222;20.916;2022-08-05T13:07:42;37.90;38.50
21778;DHT22;11050;52.222;20.916;2022-08-05T13:10:11;37.80;37.90
21778;DHT22;11050;52.222;20.916;2022-08-05T13:12:40;37.70;37.80
21778;DHT22;11050;52.222;20.916;2022-08-05T13:15:09;37.50;38.50
21778;DHT22;11050;52.222;20.916;2022-08-05T13:17:36;37.60;38.80
21778;DHT22;11050;52.222;20.916;2022-08-05T13:20:11;37.80;38.40
21778;DHT22;11050;52.222;20.916;2022-08-05T13:22:48;38.10;38.00
21778;DHT22;11050;52.222;20.916;2022-08-05T13:25:17;38.20;37.70
21778;DHT22;11050;52.222;20.916;2022-08-05T13:27:51;38.40;37.30
21778;DHT22;11050;52.222;20.916;2022-08-05T13:30:20;38.60;36.80
21778;DHT22;11050;52.222;20.916;2022-08-05T13:32:49;39.00;37.30
21778;DHT22;11050;52.222;20.916;2022-08-05T13:35:17;39.20;37.00
21778;DHT22;11050;52.222;20.916;2022-08-05T13:37:45;39.40;36.90
21778;DHT22;11050;52.222;20.916;2022-08-05T13:40:11;39.50;35.70
21778;DHT22;11050;52.222;20.916;2022-08-05T13:42:37;39.70;35.50
21778;DHT22;11050;52.222;20.916;2022-08-05T13:45:04;39.70;35.30
21778;DHT22;11050;52.222;20.916;2022-08-05T13:47:32;39.60;35.70
21778;DHT22;11050;52.222;20.916;2022-08-05T13:50:05;39.70;35.20
21778;DHT22;11050;52.222;20.916;2022-08-05T13:52:31;39.80;35.90
21778;DHT22;11050;52.222;20.916;2022-08-05T13:54:58;39.90;34.90
21778;DHT22;11050;52.222;20.916;2022-08-05T13:57:24;39.90;35.30
21778;DHT22;11050;52.222;20.916;2022-08-05T13:59:50;39.80;36.40
21778;DHT22;11050;52.222;20.916;2022-08-05T14:02:16;39.90;35.90
21778;DHT22;11050;52.222;20.916;2022-08-05T14:04:44;40.10;35.80
21778;DHT22;11050;52.222;20.916;2022-08-05T14:07:38;40.00;34.40
21778;DHT22;11050;52.222;20.916;2022-08-05T14:10:19;40.00;34.60
21778;DHT22;11050;52.222;20.916;2022-08-05T14:12:48;40.10;35.30
21778;DHT22;11050;52.222;20.916;2022-08-05T14:15:14;40.30;34.50
21778;DHT22;11050;52.222;20.916;2022-08-05T14:17:40;40.40;35.10
21778;DHT22;11050;52.222;20.916;2022-08-05T14:20:07;40.50;34.60
21778;DHT22;11050;52.222;20.916;2022-08-05T14:22:33;40.60;33.60
21778;DHT22;11050;52.222;20.916;2022-08-05T14:25:00;40.70;33.80
21778;DHT22;11050;52.222;20.916;2022-08-05T14:27:26;40.80;33.50
21778;DHT22;11050;52.222;20.916;2022-08-05T14:29:52;40.90;32.90
21778;DHT22;11050;52.222;20.916;2022-08-05T14:32:18;41.00;34.30
21778;DHT22;11050;52.222;20.916;2022-08-05T14:34:44;41.10;32.80
21778;DHT22;11050;52.222;20.916;2022-08-05T14:37:10;41.20;32.30
21778;DHT22;11050;52.222;20.916;2022-08-05T14:39:36;41.30;32.90
21778;DHT22;11050;52.222;20.916;2022-08-05T14:42:02;41.40;32.50
21778;DHT22;11050;52.222;20.916;2022-08-05T14:44:28;41.60;32.60
21778;DHT22;11050;52.222;20.916;2022-08-05T14:46:54;41.80;31.90
21778;DHT22;11050;52.222;20.916;2022-08-05T14:49:20;41.80;33.10
21778;DHT22;11050;52.222;20.916;2022-08-05T14:51:45;41.80;31.40
21778;DHT22;11050;52.222;20.916;2022-08-05T14:54:11;41.80;31.80
21778;DHT22;11050;52.222;20.916;2022-08-05T14:56:37;41.90;31.70
21778;DHT22;11050;52.222;20.916;2022-08-05T14:59:03;41.90;32.30
21778;DHT22;11050;52.222;20.916;2022-08-05T15:01:29;41.90;32.30
21778;DHT22;11050;52.222;20.916;2022-08-05T15:03:55;42.10;32.10
21778;DHT22;11050;52.222;20.916;2022-08-05T15:06:20;42.20;31.10
21778;DHT22;11050;52.222;20.916;2022-08-05T15:08:46;42.30;31.00
21778;DHT22;11050;52.222;20.916;2022-08-05T15:11:12;42.40;32.20
21778;DHT22;11050;52.222;20.916;2022-08-05T15:13:38;42.40;31.90
21778;DHT22;11050;52.222;20.916;2022-08-05T15:16:05;42.20;30.30
21778;DHT22;11050;52.222;20.916;2022-08-05T15:18:31;42.00;31.40
21778;DHT22;11050;52.222;20.916;2022-08-05T15:20:58;41.90;31.30
21778;DHT22;11050;52.222;20.916;2022-08-05T15:23:24;41.90;31.50
21778;DHT22;11050;52.222;20.916;2022-08-05T15:25:50;41.80;31.50
21778;DHT22;11050;52.222;20.916;2022-08-05T15:28:16;41.50;31.50
21778;DHT22;11050;52.222;20.916;2022-08-05T15:30:43;41.20;32.20
21778;DHT22;11050;52.222;20.916;2022-08-05T15:33:09;41.00;32.50
21778;DHT22;11050;52.222;20.916;2022-08-05T15:35:35;40.90;33.30
21778;DHT22;11050;52.222;20.916;2022-08-05T15:38:00;41.00;33.40
21778;DHT22;11050;52.222;20.916;2022-08-05T15:40:26;41.10;32.90
21778;DHT22;11050;52.222;20.916;2022-08-05T15:42:52;41.20;32.40
21778;DHT22;11050;52.222;20.916;2022-08-05T15:45:18;41.40;33.20
21778;DHT22;11050;52.222;20.916;2022-08-05T15:47:45;41.70;33.00
21778;DHT22;11050;52.222;20.916;2022-08-05T15:50:11;41.90;32.50
21778;DHT22;11050;52.222;20.916;2022-08-05T15:52:38;42.00;31.90
21778;DHT22;11050;52.222;20.916;2022-08-05T15:55:07;42.10;31.60
21778;DHT22;11050;52.222;20.916;2022-08-05T15:57:35;42.00;30.20
21778;DHT22;11050;52.222;20.916;2022-08-05T16:00:03;41.90;30.70
21778;DHT22;11050;52.222;20.916;2022-08-05T16:02:30;41.80;31.00
21778;DHT22;11050;52.222;20.916;2022-08-05T16:04:55;41.80;31.30
21778;DHT22;11050;52.222;20.916;2022-08-05T16:07:21;41.80;31.30
21778;DHT22;11050;52.222;20.916;2022-08-05T16:09:47;41.80;31.20